Time;durP1;ratioP1;P1;durP2;ratioP2;P2;SDS_P1;SDS_P2;PMS_P1;PMS_P2;Temp;Humidity;BMP_temperature;BMP_pressure;BME280_temperature;BME280_humidity;BME280_pressure;Samples;Min_cycle;Max_cycle;Signal;HPM_P1;HPM_P2
2019/06/26 00:00:32;;;;;;;5.5;4.4;;;;;;;32.22;45.16797;1007.077;;;;
2019/06/26 00:03:01;;;;;;;5.1;4.5;;;;;;;32.22;45.29102;1007.099;;;;
2019/06/26 00:05:30;;;;;;;4.8;4.2;;;;;;;32.2;45.1416;1007.118;;;;
2019/06/26 00:07:56;;;;;;;7.8;4.5;;;;;;;32.2;45.24023;1007.075;;;;
2019/06/26 00:10:21;;;;;;;6.1;4.5;;;;;;;32.2;45.0791;1007.093;;;;
2019/06/26 00:12:47;;;;;;;5.3;4.3;;;;;;;32.19;45.04199;1007.113;;;;
2019/06/26 00:15:13;;;;;;;6.1;4.8;;;;;;;32.19;45.15234;1007.074;;;;
2019/06/26 00:17:57;;;;;;;6.7;4.5;;;;;;;32.19;45.16504;1007.115;;;;
2019/06/26 00:20:31;;;;;;;5.1;4.6;;;;;;;32.17;45.22461;1007.099;;;;
2019/06/26 00:22:57;;;;;;;5.3;4.5;;;;;;;32.16;45.21094;1007.089;;;;
2019/06/26 00:25:23;;;;;;;6.3;4.9;;;;;;;32.17;45.23633;1007.163;;;;
2019/06/26 00:27:48;;;;;;;5.9;4.3;;;;;;;32.18;45.39746;1007.204;;;;
2019/06/26 00:28:34;;;;;;;6.9;4.7;;;;;;;32.19;45.38574;1007.186;;;;
2019/06/26 00:30:59;;;;;;;7.9;4.5;;;;;;;32.24;45.1582;1007.212;;;;
2019/06/26 00:34:22;;;;;;;6.8;4.8;;;;;;;32.31;45.00391;1007.286;;;;
2019/06/26 00:36:47;;;;;;;5.4;4.6;;;;;;;32.28;45.13672;1007.257;;;;
2019/06/26 00:39:12;;;;;;;6.8;4.7;;;;;;;32.26;45.27051;1007.21;;;;
2019/06/26 00:42:32;;;;;;;6.7;5.2;;;;;;;32.28;45.13574;1007.272;;;;
2019/06/26 00:44:57;;;;;;;6.4;5.1;;;;;;;32.26;45.12305;1007.302;;;;
2019/06/26 00:47:22;;;;;;;5.4;4.7;;;;;;;32.25;45.18262;1007.283;;;;
2019/06/26 00:49:47;;;;;;;6.6;4.8;;;;;;;32.24;45.20703;1007.326;;;;
2019/06/26 00:52:12;;;;;;;6;4.7;;;;;;;32.22;45.24121;1007.324;;;;
2019/06/26 00:54:44;;;;;;;5.3;4.8;;;;;;;32.21;45.27832;1007.358;;;;
2019/06/26 00:57:10;;;;;;;5.4;4.9;;;;;;;32.2;45.33691;1007.394;;;;
2019/06/26 01:00:30;;;;;;;5.9;5.1;;;;;;;32.22;45.32813;1007.428;;;;
2019/06/26 01:00:41;;;;;;;6.1;5.2;;;;;;;32.22;45.30273;1007.451;;;;
2019/06/26 01:03:07;;;;;;;6;5.2;;;;;;;32.24;45.31836;1007.452;;;;
2019/06/26 01:05:32;;;;;;;7.3;5.1;;;;;;;32.23;45.43945;1007.458;;;;
2019/06/26 01:05:47;;;;;;;6.8;5;;;;;;;32.23;45.42676;1007.463;;;;
2019/06/26 01:08:12;;;;;;;5.5;4.8;;;;;;;32.26;45.33105;1007.502;;;;
2019/06/26 01:10:39;;;;;;;6.9;4.8;;;;;;;32.24;45.34277;1007.53;;;;
2019/06/26 01:13:04;;;;;;;6.3;5;;;;;;;32.22;45.36426;1007.527;;;;
2019/06/26 01:15:30;;;;;;;5.6;5;;;;;;;32.2;45.39844;1007.523;;;;
2019/06/26 01:17:56;;;;;;;5.3;4.8;;;;;;;32.2;45.39844;1007.497;;;;
2019/06/26 01:20:22;;;;;;;7.3;5.1;;;;;;;32.19;45.43555;1007.48;;;;
2019/06/26 01:22:47;;;;;;;6.1;5.5;;;;;;;32.19;45.42383;1007.492;;;;
2019/06/26 01:25:28;;;;;;;7.6;5.4;;;;;;;32.18;45.40918;1007.503;;;;
2019/06/26 01:27:53;;;;;;;5.9;5.3;;;;;;;32.17;45.45801;1007.492;;;;
2019/06/26 01:30:19;;;;;;;6.6;4.8;;;;;;;32.16;45.43359;1007.492;;;;
2019/06/26 01:32:44;;;;;;;6.9;5.5;;;;;;;32.17;45.44531;1007.529;;;;
2019/06/26 01:35:09;;;;;;;7.3;5.7;;;;;;;32.16;45.4082;1007.541;;;;
2019/06/26 01:37:34;;;;;;;6.5;5.3;;;;;;;32.16;45.37109;1007.532;;;;
2019/06/26 01:40:11;;;;;;;5.8;5.1;;;;;;;32.15;45.38184;1007.536;;;;
2019/06/26 01:42:36;;;;;;;7.1;5.4;;;;;;;32.13;45.41699;1007.518;;;;
2019/06/26 01:45:01;;;;;;;6.8;5.3;;;;;;;32.12;45.39063;1007.498;;;;
2019/06/26 01:47:27;;;;;;;6.2;5.2;;;;;;;32.12;45.35449;1007.464;;;;
2019/06/26 01:49:52;;;;;;;8.8;5.5;;;;;;;32.13;45.33105;1007.425;;;;
2019/06/26 01:52:22;;;;;;;7;5.2;;;;;;;32.12;45.29297;1007.449;;;;
2019/06/26 01:54:52;;;;;;;7;5;;;;;;;32.1;45.35254;1007.481;;;;
2019/06/26 01:55:20;;;;;;;6.1;5;;;;;;;32.09;45.36328;1007.43;;;;
2019/06/26 01:57:45;;;;;;;5.8;5.2;;;;;;;32.11;45.30469;1007.425;;;;
2019/06/26 02:00:11;;;;;;;5.8;4.8;;;;;;;32.11;45.24316;1007.479;;;;
2019/06/26 02:02:36;;;;;;;8;5.7;;;;;;;32.11;45.25586;1007.372;;;;
2019/06/26 02:06:01;;;;;;;7.3;5.1;;;;;;;32.12;45.20605;1007.409;;;;
2019/06/26 02:08:35;;;;;;;7.3;5.4;;;;;;;32.11;45.16992;1007.445;;;;
2019/06/26 02:11:06;;;;;;;6.7;4.9;;;;;;;32.09;45.21582;1007.441;;;;
2019/06/26 02:13:31;;;;;;;9.1;5.5;;;;;;;32.08;45.22754;1007.44;;;;
2019/06/26 02:15:59;;;;;;;6.2;5.2;;;;;;;32.08;45.21582;1007.471;;;;
2019/06/26 02:20:15;;;;;;;7.6;5.1;;;;;;;32.08;45.16699;1007.477;;;;
2019/06/26 02:20:49;;;;;;;6.9;5.2;;;;;;;32.08;45.17871;1007.458;;;;
2019/06/26 02:23:15;;;;;;;7.2;5.1;;;;;;;32.08;45.08008;1007.448;;;;
2019/06/26 02:25:40;;;;;;;8.7;5.3;;;;;;;32.08;45.10547;1007.438;;;;
2019/06/26 02:28:05;;;;;;;7.3;5.5;;;;;;;32.08;45.11719;1007.441;;;;
2019/06/26 02:30:32;;;;;;;7.2;5.4;;;;;;;32.09;45.2041;1007.443;;;;
2019/06/26 02:32:57;;;;;;;6.5;5.2;;;;;;;32.09;45.19141;1007.52;;;;
2019/06/26 02:35:23;;;;;;;8.2;5.3;;;;;;;32.08;45.20313;1007.495;;;;
2019/06/26 02:37:48;;;;;;;8.3;5.1;;;;;;;32.08;45.0918;1007.513;;;;
2019/06/26 02:40:23;;;;;;;8.9;5.3;;;;;;;32.08;45.12891;1007.516;;;;
2019/06/26 02:42:48;;;;;;;6.1;5.2;;;;;;;32.05;45.27441;1007.5;;;;
2019/06/26 02:43:15;;;;;;;7.5;5.2;;;;;;;32.07;45.375;1007.515;;;;
2019/06/26 02:46:34;;;;;;;7.7;5.3;;;;;;;32.14;45.06152;1007.52;;;;
2019/06/26 02:48:59;;;;;;;6.5;5.1;;;;;;;32.14;45.12305;1007.564;;;;
2019/06/26 02:51:24;;;;;;;7.8;5.1;;;;;;;32.12;45.20703;1007.564;;;;
2019/06/26 02:53:49;;;;;;;5.8;5.2;;;;;;;32.11;45.21875;1007.54;;;;
2019/06/26 02:57:08;;;;;;;5.9;5;;;;;;;32.13;45.12109;1007.594;;;;
2019/06/26 02:59:35;;;;;;;8.2;5.4;;;;;;;32.13;45.23242;1007.577;;;;
2019/06/26 03:02:16;;;;;;;8.4;5;;;;;;;32.08;45.25293;1007.644;;;;
2019/06/26 03:04:43;;;;;;;7.4;5.1;;;;;;;32.06;45.34766;1007.615;;;;
2019/06/26 03:07:10;;;;;;;6.8;5.1;;;;;;;32.04;45.40723;1007.615;;;;
2019/06/26 03:09:45;;;;;;;7.1;5.4;;;;;;;32.02;45.45508;1007.616;;;;
2019/06/26 03:12:11;;;;;;;5.6;4.8;;;;;;;32;45.53906;1007.592;;;;
2019/06/26 03:12:47;;;;;;;5.8;5.1;;;;;;;32.01;45.49219;1007.613;;;;
2019/06/26 03:15:13;;;;;;;8;5.1;;;;;;;32.05;45.40918;1007.663;;;;
2019/06/26 03:18:32;;;;;;;7;5.1;;;;;;;32.07;45.30078;1007.662;;;;
2019/06/26 03:20:57;;;;;;;8.4;5.6;;;;;;;32.06;45.37305;1007.641;;;;
2019/06/26 03:21:17;;;;;;;7;5.2;;;;;;;32.06;45.34766;1007.666;;;;
2019/06/26 03:24:36;;;;;;;6;5.3;;;;;;;32.06;45.36133;1007.665;;;;
2019/06/26 03:27:02;;;;;;;6.3;5.1;;;;;;;32.05;45.33594;1007.664;;;;
2019/06/26 03:29:30;;;;;;;7.7;5.4;;;;;;;32.03;45.37012;1007.696;;;;
2019/06/26 03:31:56;;;;;;;7.3;5.1;;;;;;;32.02;45.39355;1007.718;;;;
2019/06/26 03:34:25;;;;;;;8;5.3;;;;;;;32.01;45.4668;1007.733;;;;
2019/06/26 03:36:52;;;;;;;6.5;5.3;;;;;;;32;45.52734;1007.778;;;;
2019/06/26 03:39:18;;;;;;;7.7;5.2;;;;;;;32.01;45.44238;1007.831;;;;
2019/06/26 03:41:42;;;;;;;9.2;5.6;;;;;;;32.01;45.41797;1007.861;;;;
2019/06/26 03:44:08;;;;;;;8;5.1;;;;;;;32.01;45.40625;1007.874;;;;
2019/06/26 03:44:52;;;;;;;7.9;5.2;;;;;;;32.02;45.43066;1007.886;;;;
2019/06/26 03:47:21;;;;;;;7.7;5.3;;;;;;;32.03;45.2959;1007.865;;;;
2019/06/26 03:49:46;;;;;;;9.4;5.1;;;;;;;32.02;45.28418;1007.873;;;;
2019/06/26 03:52:12;;;;;;;7.3;5.2;;;;;;;32.03;45.12402;1007.887;;;;
2019/06/26 03:54:37;;;;;;;6.4;5.1;;;;;;;32.03;45.18555;1007.937;;;;
2019/06/26 03:57:07;;;;;;;7.4;5.2;;;;;;;32.04;45.14941;1007.906;;;;
2019/06/26 03:59:35;;;;;;;7.1;5;;;;;;;32.01;45.17188;1007.889;;;;
2019/06/26 04:02:01;;;;;;;6;5.1;;;;;;;32.01;45.24414;1007.897;;;;
2019/06/26 04:04:26;;;;;;;8.2;5.1;;;;;;;32.03;45.14844;1007.936;;;;
2019/06/26 04:06:51;;;;;;;8.7;5.3;;;;;;;32.03;45.08691;1007.935;;;;
2019/06/26 04:09:17;;;;;;;7.2;4.7;;;;;;;32.04;45.10059;1007.969;;;;
2019/06/26 04:11:48;;;;;;;6.6;5.4;;;;;;;32.05;45.04004;1007.982;;;;
2019/06/26 04:14:17;;;;;;;6.6;5.1;;;;;;;32.04;45.02637;1007.979;;;;
2019/06/26 04:17:05;;;;;;;6.8;5.3;;;;;;;32.04;44.98926;1007.991;;;;
2019/06/26 04:19:30;;;;;;;7.3;5;;;;;;;32.03;44.96484;1007.998;;;;
2019/06/26 04:21:55;;;;;;;9.7;5.1;;;;;;;32.05;44.99121;1008.018;;;;
2019/06/26 04:24:29;;;;;;;7.7;5.2;;;;;;;32.06;44.97852;1008.034;;;;
2019/06/26 04:26:55;;;;;;;6.3;4.9;;;;;;;32.06;45.02832;1008.059;;;;
2019/06/26 04:29:33;;;;;;;10.2;5.2;;;;;;;32.06;45.0166;1008.115;;;;
2019/06/26 04:31:58;;;;;;;9.1;5.1;;;;;;;32.05;45.06543;1008.09;;;;
2019/06/26 04:34:23;;;;;;;8.3;5.4;;;;;;;32.06;45.10254;1008.067;;;;
2019/06/26 04:36:48;;;;;;;8.5;4.9;;;;;;;32.08;45.20313;1008.087;;;;
2019/06/26 04:40:07;;;;;;;5.8;4.6;;;;;;;32.12;45.08398;1008.12;;;;
2019/06/26 04:42:32;;;;;;;8.1;5.1;;;;;;;32.16;44.95215;1008.158;;;;
2019/06/26 04:44:58;;;;;;;7;4.8;;;;;;;32.18;44.91699;1008.2;;;;
2019/06/26 04:47:29;;;;;;;7.5;5.2;;;;;;;32.17;44.84277;1008.196;;;;
2019/06/26 04:49:54;;;;;;;6.4;4.7;;;;;;;32.18;44.87988;1008.213;;;;
2019/06/26 04:50:25;;;;;;;10.6;4.9;;;;;;;32.17;44.86816;1008.209;;;;
2019/06/26 04:52:58;;;;;;;11.2;4.7;;;;;;;32.19;44.84473;1008.273;;;;
2019/06/26 04:55:24;;;;;;;6.8;5;;;;;;;32.18;44.85547;1008.243;;;;
2019/06/26 04:58:03;;;;;;;8.6;4.6;;;;;;;32.18;44.83105;1008.295;;;;
2019/06/26 05:00:28;;;;;;;6;4.8;;;;;;;32.17;44.85547;1008.304;;;;
2019/06/26 05:03:09;;;;;;;6.1;4.9;;;;;;;32.18;44.81836;1008.299;;;;
2019/06/26 05:05:34;;;;;;;5.4;4.8;;;;;;;32.17;44.81836;1008.307;;;;
2019/06/26 05:09:46;;;;;;;6;4.7;;;;;;;32.18;44.74609;1008.315;;;;
2019/06/26 05:12:11;;;;;;;8.9;4.8;;;;;;;32.19;44.67285;1008.293;;;;
2019/06/26 05:14:37;;;;;;;8.3;5;;;;;;;32.22;44.58887;1008.316;;;;
2019/06/26 05:17:02;;;;;;;7.5;5.1;;;;;;;32.23;44.55273;1008.304;;;;
2019/06/26 05:19:28;;;;;;;8.6;4.9;;;;;;;32.26;44.44629;1008.352;;;;
2019/06/26 05:21:54;;;;;;;6.2;4.8;;;;;;;32.28;44.38477;1008.369;;;;
2019/06/26 05:24:19;;;;;;;6.2;4.8;;;;;;;32.29;44.3125;1008.381;;;;
2019/06/26 05:26:44;;;;;;;6.8;4.8;;;;;;;32.3;44.24121;1008.381;;;;
2019/06/26 05:29:10;;;;;;;7.7;4.9;;;;;;;32.33;44.18164;1008.393;;;;
2019/06/26 05:31:40;;;;;;;7.2;4.9;;;;;;;32.34;44.0957;1008.408;;;;
2019/06/26 05:34:05;;;;;;;6.7;4.9;;;;;;;32.35;44.02344;1008.428;;;;
2019/06/26 05:36:31;;;;;;;7.5;5.3;;;;;;;32.38;43.94043;1008.439;;;;
2019/06/26 05:38:56;;;;;;;6.5;4.7;;;;;;;32.43;43.79688;1008.435;;;;
2019/06/26 05:41:21;;;;;;;7.8;5.2;;;;;;;32.45;43.66309;1008.502;;;;
2019/06/26 05:43:47;;;;;;;6.9;5.1;;;;;;;32.48;43.51953;1008.488;;;;
2019/06/26 05:44:09;;;;;;;6.6;4.9;;;;;;;32.49;43.50781;1008.549;;;;
2019/06/26 05:46:35;;;;;;;7.8;5.1;;;;;;;32.53;43.35059;1008.543;;;;
2019/06/26 05:49:03;;;;;;;8.3;4.9;;;;;;;32.55;43.24219;1008.553;;;;
2019/06/26 05:52:22;;;;;;;8.2;5;;;;;;;32.56;43.12012;1008.588;;;;
2019/06/26 05:54:47;;;;;;;6.5;4.5;;;;;;;32.57;43.05957;1008.593;;;;
2019/06/26 05:57:13;;;;;;;7;4.8;;;;;;;32.59;42.98633;1008.612;;;;
2019/06/26 06:01:26;;;;;;;7.9;5;;;;;;;32.65;42.7959;1008.617;;;;
2019/06/26 06:03:51;;;;;;;7.6;5;;;;;;;32.67;42.6748;1008.65;;;;
2019/06/26 06:06:16;;;;;;;7.2;4.4;;;;;;;32.67;42.67578;1008.685;;;;
2019/06/26 06:09:35;;;;;;;9.7;5.2;;;;;;;32.69;42.61426;1008.594;;;;
2019/06/26 06:12:01;;;;;;;8.5;5;;;;;;;32.69;42.58984;1008.595;;;;
2019/06/26 06:14:26;;;;;;;11;4.9;;;;;;;32.69;42.56543;1008.597;;;;
2019/06/26 06:16:51;;;;;;;8.4;5.2;;;;;;;32.7;42.54102;1008.606;;;;
2019/06/26 06:19:21;;;;;;;10.7;5;;;;;;;32.7;42.51758;1008.619;;;;
2019/06/26 06:21:58;;;;;;;8.3;5.1;;;;;;;32.68;42.55176;1008.627;;;;
2019/06/26 06:24:36;;;;;;;8.9;5.3;;;;;;;32.66;42.5625;1008.68;;;;
2019/06/26 06:27:14;;;;;;;8.2;5.2;;;;;;;32.65;42.57422;1008.735;;;;
2019/06/26 06:29:39;;;;;;;9.4;5.1;;;;;;;32.64;42.56055;1008.737;;;;
2019/06/26 06:32:04;;;;;;;8.9;4.9;;;;;;;32.65;42.51172;1008.792;;;;
2019/06/26 06:34:29;;;;;;;8.7;5.1;;;;;;;32.65;42.48926;1008.746;;;;
2019/06/26 06:36:55;;;;;;;12.9;5.5;;;;;;;32.66;42.41504;1008.79;;;;
2019/06/26 06:39:20;;;;;;;10.4;5.3;;;;;;;32.66;42.3291;1008.802;;;;
2019/06/26 06:41:46;;;;;;;7;5.3;;;;;;;32.67;42.30371;1008.829;;;;
2019/06/26 06:44:17;;;;;;;9.1;5.2;;;;;;;32.66;42.34082;1008.885;;;;
2019/06/26 06:46:42;;;;;;;10;5.3;;;;;;;32.64;42.3877;1008.889;;;;
2019/06/26 06:49:07;;;;;;;8.4;4.8;;;;;;;32.66;42.37793;1008.912;;;;
2019/06/26 06:51:33;;;;;;;7.7;4.8;;;;;;;32.67;42.35449;1008.943;;;;
2019/06/26 06:53:58;;;;;;;9.1;5.4;;;;;;;32.68;42.31934;1008.958;;;;
2019/06/26 06:56:38;;;;;;;7.7;5.1;;;;;;;32.69;42.35547;1008.999;;;;
2019/06/26 06:59:20;;;;;;;10.4;5.2;;;;;;;32.68;42.37988;1009.029;;;;
2019/06/26 07:02:07;;;;;;;7.4;5;;;;;;;32.65;42.47656;1009.073;;;;
2019/06/26 07:04:32;;;;;;;8.2;5.3;;;;;;;32.65;42.48828;1009.074;;;;
2019/06/26 07:06:58;;;;;;;9.2;5.1;;;;;;;32.67;42.48926;1009.09;;;;
2019/06/26 07:09:23;;;;;;;5.3;4.8;;;;;;;32.65;42.53613;1009.124;;;;
2019/06/26 07:12:03;;;;;;;10.9;5;;;;;;;32.65;42.5;1009.14;;;;
2019/06/26 07:14:37;;;;;;;9.4;4.9;;;;;;;32.64;42.4873;1009.168;;;;
2019/06/26 07:15:05;;;;;;;12.3;5.3;;;;;;;32.64;42.4502;1009.168;;;;
2019/06/26 07:18:28;;;;;;;10.7;5;;;;;;;32.68;42.31836;1009.263;;;;
2019/06/26 07:20:53;;;;;;;7.2;4.9;;;;;;;32.7;42.25879;1009.264;;;;
2019/06/26 07:23:19;;;;;;;9.3;5.5;;;;;;;32.72;42.17383;1009.287;;;;
2019/06/26 07:25:51;;;;;;;7.1;5.1;;;;;;;32.72;42.07617;1009.221;;;;
2019/06/26 07:28:17;;;;;;;12.4;5.3;;;;;;;32.73;42.01465;1009.229;;;;
2019/06/26 07:31:36;;;;;;;7.3;4.9;;;;;;;32.81;41.85059;1009.282;;;;
2019/06/26 07:34:02;;;;;;;8.8;4.7;;;;;;;32.82;41.78906;1009.327;;;;
2019/06/26 07:36:29;;;;;;;8.8;5;;;;;;;32.82;41.76465;1009.335;;;;
2019/06/26 07:38:54;;;;;;;7.4;4.6;;;;;;;32.82;41.75293;1009.363;;;;
2019/06/26 07:41:20;;;;;;;7.2;4.8;;;;;;;32.82;41.76465;1009.364;;;;
2019/06/26 07:44:39;;;;;;;9.9;4.7;;;;;;;32.83;41.74121;1009.333;;;;
2019/06/26 07:47:04;;;;;;;8.1;4.4;;;;;;;32.85;41.73047;1009.357;;;;
2019/06/26 07:49:30;;;;;;;7.2;4.4;;;;;;;32.87;41.69531;1009.395;;;;
2019/06/26 07:51:55;;;;;;;10.2;4.7;;;;;;;32.88;41.6709;1009.388;;;;
2019/06/26 07:54:20;;;;;;;9.8;4.6;;;;;;;32.89;41.64844;1009.373;;;;
2019/06/26 07:57:42;;;;;;;7.9;4.5;;;;;;;32.92;41.57617;1009.327;;;;
2019/06/26 08:00:07;;;;;;;9.8;4.5;;;;;;;32.92;41.52734;1009.324;;;;
2019/06/26 08:02:32;;;;;;;6.8;4.7;;;;;;;32.94;41.44238;1009.336;;;;
2019/06/26 08:04:58;;;;;;;9.8;4.5;;;;;;;32.96;41.44531;1009.366;;;;
2019/06/26 08:07:23;;;;;;;9;4.4;;;;;;;33;41.25098;1009.387;;;;
2019/06/26 08:09:48;;;;;;;6;4.3;;;;;;;33.02;41.21582;1009.353;;;;
2019/06/26 08:12:17;;;;;;;7.5;4.4;;;;;;;33.02;41.19141;1009.314;;;;
2019/06/26 08:13:09;;;;;;;7.7;4.4;;;;;;;33.01;41.19043;1009.32;;;;
2019/06/26 08:15:34;;;;;;;8.7;4.3;;;;;;;33.02;41.1416;1009.367;;;;
2019/06/26 08:18:00;;;;;;;8.3;4.6;;;;;;;33.03;41.12988;1009.379;;;;
2019/06/26 08:20:29;;;;;;;9.9;4.1;;;;;;;33.04;41.05762;1009.384;;;;
2019/06/26 08:23:10;;;;;;;8;4.3;;;;;;;33.05;40.9834;1009.402;;;;
2019/06/26 08:25:37;;;;;;;6.9;4;;;;;;;33.03;40.99512;1009.411;;;;
2019/06/26 08:28:07;;;;;;;9.1;4.2;;;;;;;33.04;40.95898;1009.419;;;;
2019/06/26 08:30:32;;;;;;;7;4.3;;;;;;;33.05;40.89746;1009.384;;;;
2019/06/26 08:32:58;;;;;;;6.8;4.2;;;;;;;33.05;40.84863;1009.366;;;;
2019/06/26 08:35:23;;;;;;;8.4;4.6;;;;;;;33.08;40.80176;1009.4;;;;
2019/06/26 08:37:48;;;;;;;6.5;4.3;;;;;;;33.11;40.80469;1009.378;;;;
2019/06/26 08:40:13;;;;;;;10.7;4.6;;;;;;;33.13;40.70703;1009.383;;;;
2019/06/26 08:42:39;;;;;;;8.5;4.3;;;;;;;33.15;40.70898;1009.362;;;;
2019/06/26 08:45:04;;;;;;;8.4;4.1;;;;;;;33.16;40.63672;1009.343;;;;
2019/06/26 08:48:23;;;;;;;6.8;4.6;;;;;;;33.22;40.53027;1009.282;;;;
2019/06/26 08:51:42;;;;;;;8.1;4.2;;;;;;;33.28;40.40039;1009.268;;;;
2019/06/26 08:54:07;;;;;;;8.6;4.4;;;;;;;33.27;40.37402;1009.299;;;;
2019/06/26 08:56:33;;;;;;;9;4.2;;;;;;;33.28;40.36328;1009.341;;;;
2019/06/26 08:58:58;;;;;;;6.6;4.1;;;;;;;33.28;40.41211;1009.312;;;;
2019/06/26 09:01:24;;;;;;;7.6;4.3;;;;;;;33.27;40.38672;1009.276;;;;
2019/06/26 09:03:49;;;;;;;6.9;4.3;;;;;;;33.27;40.3125;1009.337;;;;
2019/06/26 09:04:31;;;;;;;6.9;4;;;;;;;33.29;40.27734;1009.279;;;;
2019/06/26 09:06:57;;;;;;;6.4;4.5;;;;;;;33.33;40.12012;1009.282;;;;
2019/06/26 09:10:16;;;;;;;6.6;4.3;;;;;;;33.37;40.01367;1009.228;;;;
2019/06/26 09:12:41;;;;;;;9.3;4.3;;;;;;;33.38;39.99023;1009.285;;;;
2019/06/26 09:15:07;;;;;;;6.7;4;;;;;;;33.37;40.01367;1009.257;;;;
2019/06/26 09:17:32;;;;;;;6.1;4.2;;;;;;;33.35;40.06152;1009.288;;;;
2019/06/26 09:19:57;;;;;;;7.7;4.3;;;;;;;33.35;40.03711;1009.311;;;;
2019/06/26 09:23:16;;;;;;;8.1;4.4;;;;;;;33.36;40.12305;1009.286;;;;
2019/06/26 09:25:41;;;;;;;8.1;4.3;;;;;;;33.35;40.12305;1009.276;;;;
2019/06/26 09:28:09;;;;;;;7;4.2;;;;;;;33.33;40.42969;1009.295;;;;
2019/06/26 09:31:40;;;;;;;8.9;4.3;;;;;;;33.38;40.54492;1009.264;;;;
2019/06/26 09:34:07;;;;;;;7.7;4.3;;;;;;;33.26;40.99121;1009.262;;;;
2019/06/26 09:36:32;;;;;;;6.6;4.5;;;;;;;33.24;41.26074;1009.35;;;;
2019/06/26 09:38:58;;;;;;;7.4;4.1;;;;;;;33.24;41.74121;1009.323;;;;
2019/06/26 09:41:23;;;;;;;7.3;4.6;;;;;;;33.25;41.92676;1009.317;;;;
2019/06/26 09:43:48;;;;;;;11.3;4;;;;;;;33.26;42.05176;1009.31;;;;
2019/06/26 09:46:14;;;;;;;9.9;4.5;;;;;;;33.26;42.56934;1009.302;;;;
2019/06/26 09:48:39;;;;;;;8.5;4.2;;;;;;;33.26;42.37207;1009.288;;;;
2019/06/26 09:49:12;;;;;;;7.4;4.4;;;;;;;33.26;42.54492;1009.312;;;;
2019/06/26 09:51:37;;;;;;;12.7;4.9;;;;;;;33.31;42.24121;1009.326;;;;
2019/06/26 09:54:17;;;;;;;10;4.4;;;;;;;33.3;42.15332;1009.333;;;;
2019/06/26 09:56:51;;;;;;;11.3;4.5;;;;;;;33.27;42.13867;1009.288;;;;
2019/06/26 09:59:32;;;;;;;9.9;4.3;;;;;;;33.23;42.13574;1009.328;;;;
2019/06/26 10:01:58;;;;;;;8.1;4;;;;;;;33.2;42.13184;1009.315;;;;
2019/06/26 10:04:23;;;;;;;6.7;4.3;;;;;;;33.19;42.07031;1009.297;;;;
2019/06/26 10:06:48;;;;;;;8;4.3;;;;;;;33.19;42.03223;1009.304;;;;
2019/06/26 10:09:14;;;;;;;8.3;4.3;;;;;;;33.2;41.93555;1009.287;;;;
2019/06/26 10:12:33;;;;;;;11.7;4.6;;;;;;;33.2;41.78711;1009.234;;;;
2019/06/26 10:14:58;;;;;;;7.1;4;;;;;;;33.21;41.59082;1009.229;;;;
2019/06/26 10:17:37;;;;;;;10;4.6;;;;;;;33.21;41.47949;1009.249;;;;
2019/06/26 10:20:02;;;;;;;5.2;4.1;;;;;;;33.23;41.40723;1009.227;;;;
2019/06/26 10:22:28;;;;;;;7.3;4.4;;;;;;;33.19;41.45313;1009.266;;;;
2019/06/26 10:22:56;;;;;;;8.2;4.3;;;;;;;33.18;41.46484;1009.272;;;;
2019/06/26 10:25:22;;;;;;;8.5;4.3;;;;;;;33.19;41.44043;1009.271;;;;
2019/06/26 10:28:41;;;;;;;11.3;4.4;;;;;;;33.24;41.55664;1009.261;;;;
2019/06/26 10:31:07;;;;;;;8.5;4.3;;;;;;;33.22;41.66602;1009.235;;;;
2019/06/26 10:33:32;;;;;;;8.5;3.9;;;;;;;33.21;41.77637;1009.292;;;;
2019/06/26 10:35:57;;;;;;;9.8;4.5;;;;;;;33.23;41.72852;1009.265;;;;
2019/06/26 10:38:23;;;;;;;8.3;4.3;;;;;;;33.24;41.80273;1009.283;;;;
2019/06/26 10:40:48;;;;;;;7.1;4.4;;;;;;;33.22;41.85059;1009.261;;;;
2019/06/26 10:43:13;;;;;;;11.5;4.5;;;;;;;33.22;41.9248;1009.206;;;;
2019/06/26 10:45:39;;;;;;;10;4.4;;;;;;;33.23;42.08594;1009.215;;;;
2019/06/26 10:48:04;;;;;;;8.8;4.2;;;;;;;33.24;42.22266;1009.229;;;;
2019/06/26 10:50:29;;;;;;;7.4;4.2;;;;;;;33.22;42.24512;1009.187;;;;
2019/06/26 10:52:55;;;;;;;8.8;4.2;;;;;;;33.23;42.25977;1009.183;;;;
2019/06/26 10:55:20;;;;;;;8.9;4.2;;;;;;;33.23;41.9873;1009.158;;;;
2019/06/26 10:58:39;;;;;;;8.9;4.1;;;;;;;33.28;41.6709;1009.147;;;;
2019/06/26 11:01:04;;;;;;;6.3;4;;;;;;;33.29;41.47461;1009.109;;;;
2019/06/26 11:04:23;;;;;;;12.3;4.3;;;;;;;33.29;41.38867;1009.077;;;;
2019/06/26 11:06:49;;;;;;;13.2;4.3;;;;;;;33.3;41.35254;1009.086;;;;
2019/06/26 11:07:34;;;;;;;13.5;4.3;;;;;;;33.3;41.36426;1009.122;;;;
2019/06/26 11:09:59;;;;;;;13.2;4.5;;;;;;;33.35;41.18457;1009.113;;;;
2019/06/26 11:13:18;;;;;;;13.4;4.6;;;;;;;33.29;41.74609;1009.097;;;;
2019/06/26 11:15:44;;;;;;;9.4;4.1;;;;;;;33.31;41.72363;1009.062;;;;
2019/06/26 11:18:09;;;;;;;13.7;4.3;;;;;;;33.3;41.80762;1009.028;;;;
2019/06/26 11:20:35;;;;;;;8.6;4.2;;;;;;;33.28;41.88086;1009.008;;;;
2019/06/26 11:23:00;;;;;;;9;4.3;;;;;;;33.27;41.92871;1008.999;;;;
2019/06/26 11:25:26;;;;;;;12.3;4.7;;;;;;;33.27;41.95313;1008.927;;;;
2019/06/26 11:27:51;;;;;;;12.1;4.3;;;;;;;33.3;41.90625;1008.909;;;;
2019/06/26 11:30:17;;;;;;;8.5;4.2;;;;;;;33.31;41.90723;1008.85;;;;
2019/06/26 11:32:42;;;;;;;9.4;4.2;;;;;;;33.32;41.94629;1008.846;;;;
2019/06/26 11:35:07;;;;;;;9.7;4.2;;;;;;;33.31;42.05664;1008.861;;;;
2019/06/26 11:38:26;;;;;;;7.5;4.3;;;;;;;33.39;41.79199;1008.864;;;;
2019/06/26 11:40:52;;;;;;;8.5;4.3;;;;;;;33.36;41.76465;1008.862;;;;
2019/06/26 11:43:17;;;;;;;11.1;4.3;;;;;;;33.37;41.7168;1008.836;;;;
2019/06/26 11:46:36;;;;;;;8.5;4.1;;;;;;;33.34;41.65234;1008.815;;;;
2019/06/26 11:49:02;;;;;;;9.7;4;;;;;;;33.36;41.58008;1008.833;;;;
2019/06/26 11:51:27;;;;;;;10;4.7;;;;;;;33.4;41.6084;1008.87;;;;
2019/06/26 11:53:52;;;;;;;10.1;4.3;;;;;;;33.43;41.47559;1008.804;;;;
2019/06/26 11:56:17;;;;;;;12.1;4.7;;;;;;;33.43;41.80859;1008.78;;;;
2019/06/26 11:59:36;;;;;;;8.8;4.4;;;;;;;33.45;42.20508;1008.758;;;;
2019/06/26 12:02:02;;;;;;;11.3;4.2;;;;;;;33.48;41.5166;1008.762;;;;
2019/06/26 12:02:22;;;;;;;9.5;4.6;;;;;;;33.47;41.51563;1008.759;;;;
2019/06/26 12:04:48;;;;;;;8.4;4.3;;;;;;;33.5;41.27148;1008.744;;;;
2019/06/26 12:07:13;;;;;;;7.5;4;;;;;;;33.48;41.13477;1008.729;;;;
2019/06/26 12:10:40;;;;;;;6.5;4.2;;;;;;;33.53;40.8916;1008.703;;;;
2019/06/26 12:13:06;;;;;;;11.3;4.3;;;;;;;33.49;40.86328;1008.64;;;;
2019/06/26 12:15:32;;;;;;;6.3;4;;;;;;;33.42;40.90723;1008.622;;;;
2019/06/26 12:17:57;;;;;;;11.2;4.2;;;;;;;33.38;40.93945;1008.578;;;;
2019/06/26 12:20:23;;;;;;;8.7;4.2;;;;;;;33.37;40.91406;1008.583;;;;
2019/06/26 12:22:49;;;;;;;9;4.4;;;;;;;33.38;40.81641;1008.581;;;;
2019/06/26 12:25:14;;;;;;;8.5;4.3;;;;;;;33.37;40.80371;1008.558;;;;
2019/06/26 12:25:58;;;;;;;8.8;4.5;;;;;;;33.39;40.78027;1008.526;;;;
2019/06/26 12:28:24;;;;;;;7.9;4.5;;;;;;;33.41;40.60938;1008.5;;;;
2019/06/26 12:30:49;;;;;;;8.5;4.2;;;;;;;33.37;40.60645;1008.55;;;;
2019/06/26 12:34:08;;;;;;;11.8;4.2;;;;;;;33.35;40.74023;1008.549;;;;
2019/06/26 12:36:33;;;;;;;8.7;4.4;;;;;;;33.34;40.83789;1008.522;;;;
2019/06/26 12:38:58;;;;;;;8;4.5;;;;;;;33.33;40.97266;1008.48;;;;
2019/06/26 12:41:24;;;;;;;6.5;4.2;;;;;;;33.28;41.46191;1008.492;;;;
2019/06/26 12:44:47;;;;;;;8.3;4.4;;;;;;;33.26;41.80566;1008.444;;;;
2019/06/26 12:47:12;;;;;;;10.5;4.3;;;;;;;33.23;41.87598;1008.426;;;;
2019/06/26 12:49:37;;;;;;;8;4.3;;;;;;;33.18;41.96973;1008.445;;;;
2019/06/26 12:52:02;;;;;;;8.5;4.6;;;;;;;33.2;41.77539;1008.42;;;;
2019/06/26 12:54:28;;;;;;;8.5;4.3;;;;;;;33.22;41.71484;1008.364;;;;
2019/06/26 12:56:53;;;;;;;9;4.5;;;;;;;33.27;41.54688;1008.375;;;;
2019/06/26 12:59:19;;;;;;;8.3;4.6;;;;;;;33.29;41.42578;1008.365;;;;
2019/06/26 13:02:38;;;;;;;7.5;4.2;;;;;;;33.35;41.30762;1008.298;;;;
2019/06/26 13:05:03;;;;;;;8.6;4.5;;;;;;;33.32;41.35352;1008.305;;;;
2019/06/26 13:07:28;;;;;;;9.6;4.2;;;;;;;33.33;41.33105;1008.285;;;;
2019/06/26 13:09:54;;;;;;;9.1;4.6;;;;;;;33.32;41.35352;1008.255;;;;
2019/06/26 13:12:21;;;;;;;9.8;4.6;;;;;;;33.37;41.21094;1008.22;;;;
2019/06/26 13:14:47;;;;;;;7.5;4.5;;;;;;;33.34;41.28223;1008.229;;;;
2019/06/26 13:17:12;;;;;;;10.1;4.3;;;;;;;33.33;41.30566;1008.188;;;;
2019/06/26 13:19:37;;;;;;;8.3;4.6;;;;;;;33.32;41.29199;1008.219;;;;
2019/06/26 13:22:02;;;;;;;8.2;4.5;;;;;;;33.27;41.63281;1008.222;;;;
2019/06/26 13:24:28;;;;;;;10.5;4.5;;;;;;;33.2;42.03418;1008.259;;;;
2019/06/26 13:26:53;;;;;;;8.4;4.6;;;;;;;33.28;42.02832;1008.277;;;;
2019/06/26 13:29:19;;;;;;;7.6;4.6;;;;;;;33.36;41.90039;1008.247;;;;
2019/06/26 13:31:44;;;;;;;10.7;4.8;;;;;;;33.35;41.8877;1008.224;;;;
2019/06/26 13:34:10;;;;;;;14.2;4.6;;;;;;;33.43;41.69727;1008.202;;;;
2019/06/26 13:36:35;;;;;;;6.6;4.5;;;;;;;33.47;41.54004;1008.206;;;;
2019/06/26 13:39:00;;;;;;;10.1;4.5;;;;;;;33.48;41.46777;1008.176;;;;
2019/06/26 13:41:26;;;;;;;14.1;4.7;;;;;;;33.51;41.38379;1008.162;;;;
2019/06/26 13:43:52;;;;;;;13.6;4.7;;;;;;;33.51;42.74121;1008.115;;;;
2019/06/26 13:46:16;;;;;;;9.2;4.7;;;;;;;33.59;43.37891;1008.135;;;;
2019/06/26 13:48:42;;;;;;;9.5;4.4;;;;;;;33.62;42.44238;1008.09;;;;
2019/06/26 13:51:07;;;;;;;8.9;4.3;;;;;;;33.61;42.87402;1008.034;;;;
2019/06/26 13:53:33;;;;;;;9.3;4.5;;;;;;;33.56;43.75879;1008.034;;;;
2019/06/26 13:56:51;;;;;;;12.6;4.8;;;;;;;33.71;42.36426;1007.936;;;;
2019/06/26 13:59:17;;;;;;;9.7;5;;;;;;;33.77;42.35742;1007.977;;;;
2019/06/26 13:59:24;;;;;;;12;5.2;;;;;;;33.75;42.44238;1007.99;;;;
2019/06/26 14:01:49;;;;;;;9.3;4.8;;;;;;;33.73;42.79883;1007.937;;;;
2019/06/26 14:04:14;;;;;;;11.3;4.5;;;;;;;33.73;42.58887;1007.915;;;;
2019/06/26 14:06:40;;;;;;;13.1;4.7;;;;;;;33.7;43.66113;1007.936;;;;
2019/06/26 14:09:07;;;;;;;11.1;4.7;;;;;;;33.69;43.77051;1007.952;;;;
2019/06/26 14:11:33;;;;;;;10.3;4.5;;;;;;;33.7;44.11816;1007.863;;;;
2019/06/26 14:13:57;;;;;;;10.7;4.8;;;;;;;33.79;43.2002;1007.899;;;;
2019/06/26 14:16:23;;;;;;;12.3;4.8;;;;;;;33.76;43.14746;1007.865;;;;